SWA2232 KLAX-KBNA
Flight info
| Callsign | SWA2232 |
|---|---|
| Flight time | N/A |
| Altitude | 37000 |
| Route | DOTSS2 CLEEE PKE J96 LANCY KEYKE INW KA36Y/N0434F390 TUL LOPPY CHSNE3 |
| Aircraft | B738/M-SDE2E3FGHIRWXY/LB1 |
Departure
| Time | 2026-05-04 14:54 |
|---|---|
| Airport | Los Angeles International Airport (KLAX) |
Arrival
| Time | N/A |
|---|---|
| Airport | Nashville International Airport (KBNA) |
| Time | Latitude | Longitude | Altitude | Speed | Heading |
|---|---|---|---|---|---|
| 2026-05-04 14:30 | 33.94723 | -118.40187 | 93 ft | 0 kts | 84° |
| 2026-05-04 14:48 | 33.94723 | -118.40188 | 92 ft | 2 kts | 84° |
| 2026-05-04 14:48 | 33.94720 | -118.40218 | 92 ft | 4 kts | 84° |
| 2026-05-04 14:48 | 33.94717 | -118.40242 | 92 ft | 4 kts | 51° |
| 2026-05-04 14:48 | 33.94698 | -118.40253 | 91 ft | 3 kts | 353° |
| 2026-05-04 14:49 | 33.94675 | -118.40249 | 91 ft | 1 kts | 353° |
| 2026-05-04 14:49 | 33.94674 | -118.40249 | 91 ft | 0 kts | 353° |
| 2026-05-04 14:51 | 33.94679 | -118.40250 | 91 ft | 3 kts | 353° |
| 2026-05-04 14:52 | 33.94719 | -118.40256 | 92 ft | 8 kts | 352° |
| 2026-05-04 14:52 | 33.94774 | -118.40265 | 94 ft | 8 kts | 350° |
| 2026-05-04 14:52 | 33.94828 | -118.40284 | 94 ft | 9 kts | 343° |
| 2026-05-04 14:52 | 33.94890 | -118.40271 | 94 ft | 10 kts | 52° |
| 2026-05-04 14:53 | 33.94921 | -118.40181 | 94 ft | 13 kts | 39° |
| 2026-05-04 14:53 | 33.95002 | -118.40189 | 96 ft | 12 kts | 315° |
| 2026-05-04 14:53 | 33.95002 | -118.40344 | 97 ft | 43 kts | 263° |
| 2026-05-04 14:53 | 33.94934 | -118.41012 | 96 ft | 115 kts | 263° |
| 2026-05-04 14:54 | 33.94814 | -118.42188 | 271 ft | 156 kts | 263° |
| 2026-05-04 14:54 | 33.94675 | -118.43480 | 1043 ft | 161 kts | 263° |
| 2026-05-04 14:54 | 33.94543 | -118.44817 | 1884 ft | 164 kts | 264° |
| 2026-05-04 14:54 | 33.94399 | -118.46303 | 2442 ft | 197 kts | 263° |
| 2026-05-04 14:55 | 33.94286 | -118.48072 | 2832 ft | 223 kts | 268° |
| 2026-05-04 14:55 | 33.94220 | -118.49974 | 3649 ft | 232 kts | 269° |
| 2026-05-04 14:55 | 33.94152 | -118.52016 | 4320 ft | 251 kts | 265° |
| 2026-05-04 14:55 | 33.93993 | -118.54137 | 5294 ft | 256 kts | 265° |
| 2026-05-04 14:56 | 33.93820 | -118.56275 | 6371 ft | 256 kts | 265° |
| 2026-05-04 14:56 | 33.93645 | -118.58415 | 7336 ft | 260 kts | 265° |
| 2026-05-04 14:56 | 33.93402 | -118.60594 | 8206 ft | 266 kts | 254° |
| 2026-05-04 14:56 | 33.92499 | -118.62544 | 9105 ft | 272 kts | 226° |
| 2026-05-04 14:57 | 33.90911 | -118.63780 | 10070 ft | 276 kts | 202° |
| 2026-05-04 14:57 | 33.88980 | -118.64197 | 10640 ft | 296 kts | 183° |
| 2026-05-04 14:57 | 33.86820 | -118.64084 | 10859 ft | 325 kts | 179° |
| 2026-05-04 14:57 | 33.84513 | -118.63740 | 11391 ft | 342 kts | 167° |
| 2026-05-04 14:58 | 33.82345 | -118.62468 | 12206 ft | 352 kts | 151° |
| 2026-05-04 14:58 | 33.80302 | -118.60807 | 13042 ft | 358 kts | 150° |
| 2026-05-04 14:58 | 33.78249 | -118.59076 | 13806 ft | 364 kts | 150° |
| 2026-05-04 14:58 | 33.76179 | -118.57345 | 14493 ft | 369 kts | 152° |
| 2026-05-04 14:59 | 33.74049 | -118.55598 | 15211 ft | 372 kts | 152° |
| 2026-05-04 14:59 | 33.71895 | -118.53846 | 15946 ft | 375 kts | 153° |
| 2026-05-04 14:59 | 33.68588 | -118.48719 | 17380 ft | 416 kts | 116° |
| 2026-05-04 15:00 | 33.67647 | -118.45407 | 18052 ft | 423 kts | 115° |
| 2026-05-04 15:00 | 33.66708 | -118.42011 | 18604 ft | 430 kts | 115° |
| 2026-05-04 15:00 | 33.65727 | -118.38589 | 19169 ft | 434 kts | 116° |
| 2026-05-04 15:01 | 33.64269 | -118.31501 | 20371 ft | 458 kts | 96° |
| 2026-05-04 15:01 | 33.64286 | -118.27661 | 20969 ft | 463 kts | 95° |
| 2026-05-04 15:01 | 33.64347 | -118.23773 | 21464 ft | 469 kts | 95° |
| 2026-05-04 15:01 | 33.64405 | -118.19840 | 21955 ft | 474 kts | 95° |
| 2026-05-04 15:02 | 33.64443 | -118.15860 | 22478 ft | 478 kts | 96° |
| 2026-05-04 15:02 | 33.64461 | -118.11854 | 23012 ft | 483 kts | 96° |
| 2026-05-04 15:02 | 33.64465 | -118.07806 | 23537 ft | 487 kts | 97° |
| 2026-05-04 15:02 | 33.64460 | -118.03725 | 23996 ft | 491 kts | 97° |
| 2026-05-04 15:03 | 33.64453 | -117.99609 | 24460 ft | 494 kts | 97° |
| 2026-05-04 15:03 | 33.64444 | -117.95474 | 24868 ft | 498 kts | 98° |
| 2026-05-04 15:03 | 33.64436 | -117.91306 | 25252 ft | 501 kts | 98° |
| 2026-05-04 15:03 | 33.64428 | -117.87110 | 25679 ft | 504 kts | 98° |
| 2026-05-04 15:04 | 33.64419 | -117.82893 | 26063 ft | 507 kts | 98° |
| 2026-05-04 15:04 | 33.64483 | -117.78637 | 26406 ft | 517 kts | 91° |
| 2026-05-04 15:04 | 33.65094 | -117.74320 | 26756 ft | 529 kts | 83° |
| 2026-05-04 15:04 | 33.65959 | -117.70011 | 27135 ft | 534 kts | 81° |
| 2026-05-04 15:05 | 33.66902 | -117.65685 | 27477 ft | 538 kts | 81° |
| 2026-05-04 15:05 | 33.67845 | -117.61319 | 27831 ft | 541 kts | 81° |
| 2026-05-04 15:05 | 33.68743 | -117.56976 | 28178 ft | 544 kts | 82° |
| 2026-05-04 15:05 | 33.69620 | -117.52536 | 28540 ft | 547 kts | 83° |
| 2026-05-04 15:06 | 33.70473 | -117.48076 | 28885 ft | 550 kts | 83° |
| 2026-05-04 15:06 | 33.71316 | -117.43602 | 29349 ft | 547 kts | 83° |
| 2026-05-04 15:06 | 33.72158 | -117.39130 | 29686 ft | 550 kts | 83° |
| 2026-05-04 15:07 | 33.73861 | -117.30115 | 30289 ft | 555 kts | 83° |
| 2026-05-04 15:07 | 33.74715 | -117.25600 | 30634 ft | 555 kts | 83° |
| 2026-05-04 15:07 | 33.75317 | -117.21060 | 30960 ft | 545 kts | 95° |
| 2026-05-04 15:07 | 33.75284 | -117.16548 | 31268 ft | 537 kts | 101° |
| 2026-05-04 15:08 | 33.75074 | -117.12078 | 31687 ft | 535 kts | 102° |
| 2026-05-04 15:08 | 33.74859 | -117.07617 | 32106 ft | 536 kts | 101° |
| 2026-05-04 15:08 | 33.74706 | -117.03118 | 32373 ft | 540 kts | 100° |
| 2026-05-04 15:08 | 33.74606 | -116.98596 | 32643 ft | 543 kts | 99° |
| 2026-05-04 15:09 | 33.74524 | -116.94052 | 32981 ft | 544 kts | 99° |
| 2026-05-04 15:09 | 33.74434 | -116.89559 | 33327 ft | 544 kts | 99° |
| 2026-05-04 15:09 | 33.74333 | -116.85014 | 33621 ft | 545 kts | 99° |
| 2026-05-04 15:10 | 33.74114 | -116.75885 | 34145 ft | 549 kts | 99° |
| 2026-05-04 15:10 | 33.74003 | -116.71299 | 34450 ft | 549 kts | 99° |
| 2026-05-04 15:10 | 33.73780 | -116.62150 | 35079 ft | 547 kts | 99° |
| 2026-05-04 15:11 | 33.73666 | -116.57569 | 35297 ft | 548 kts | 99° |
| 2026-05-04 15:11 | 33.73550 | -116.52990 | 35561 ft | 549 kts | 99° |
| 2026-05-04 15:11 | 33.73432 | -116.48409 | 35911 ft | 547 kts | 99° |
| 2026-05-04 15:11 | 33.73316 | -116.43852 | 36304 ft | 544 kts | 99° |
| 2026-05-04 15:12 | 33.73199 | -116.39326 | 36641 ft | 542 kts | 99° |
| 2026-05-04 15:12 | 33.73076 | -116.34801 | 36856 ft | 543 kts | 99° |
| 2026-05-04 15:12 | 33.72949 | -116.30251 | 36951 ft | 547 kts | 99° |
| 2026-05-04 15:13 | 33.72689 | -116.21044 | 36949 ft | 554 kts | 99° |
| 2026-05-04 15:13 | 33.72432 | -116.11803 | 36955 ft | 554 kts | 99° |
| 2026-05-04 15:13 | 33.72452 | -116.07155 | 36928 ft | 562 kts | 88° |
| 2026-05-04 15:14 | 33.73330 | -116.02608 | 36970 ft | 569 kts | 73° |
| 2026-05-04 15:14 | 33.75951 | -115.93618 | 36932 ft | 569 kts | 72° |